This is the latest recevied weather packets stored in our database for station/object OK1KKY-18. If no packets are shown the sender has not sent any weather packets the latest 10 day(s).
| Time | Temp. | Humidity | Pressure | Rain* | Wind** | Luminosity | Snow |
|---|---|---|---|---|---|---|---|
| 1778014562 | 13.89° C | 85% | 1005.9 hPa | - | - | - | - |
| 1778013962 | 13.89° C | 84% | 1005.9 hPa | - | - | - | - |
| 1778013362 | 13.89° C | 84% | 1005.9 hPa | - | - | - | - |
| 1778012762 | 13.89° C | 85% | 1006 hPa | - | - | - | - |
| 1778012162 | 13.89° C | 85% | 1006.3 hPa | - | - | - | - |
| 1778011562 | 13.89° C | 85% | 1006.3 hPa | - | - | - | - |
| 1778010962 | 13.89° C | 84% | 1006.4 hPa | - | - | - | - |
| 1778010362 | 14.44° C | 83% | 1006.4 hPa | - | - | - | - |
| 1778009762 | 14.44° C | 81% | 1006.6 hPa | - | - | - | - |
| 1778009162 | 15° C | 81% | 1006.9 hPa | - | - | - | - |
| 1778008562 | 16.11° C | 73% | 1007.2 hPa | - | - | - | - |
| 1778007962 | 17.22° C | 67% | 1007.1 hPa | - | - | - | - |
| 1778007362 | 17.22° C | 60% | 1006.8 hPa | - | - | - | - |
| 1778006763 | 17.22° C | 59% | 1006.8 hPa | - | - | - | - |
| 1778006162 | 17.78° C | 57% | 1006.6 hPa | - | - | - | - |
| 1778005562 | 17.78° C | 61% | 1006.4 hPa | - | - | - | - |
| 1778004962 | 17.78° C | 61% | 1006 hPa | - | - | - | - |
| 1778004362 | 18.33° C | 59% | 1006 hPa | - | - | - | - |
| 1778003762 | 18.33° C | 58% | 1006 hPa | - | - | - | - |
| 1778003162 | 18.89° C | 58% | 1005.9 hPa | - | - | - | - |
| 1778002562 | 18.89° C | 57% | 1006 hPa | - | - | - | - |
| 1778001961 | 18.89° C | 56% | 1006 hPa | - | - | - | - |
| 1778001362 | 19.44° C | 55% | 1006.1 hPa | - | - | - | - |
| 1778000762 | 20° C | 54% | 1006 hPa | - | - | - | - |
| 1778000162 | 20° C | 52% | 1006.2 hPa | - | - | - | - |
* Rain since midnight (hover to see other rain measurements)
** Current wind speed in m/s (hover to see current wind gust speed)